Data for 02/28/2008

Time Sea-Level Adjusted Pressure Absolute Pressure Temperature Relative Humidity Dew Point   
(mb) (inHg) (mb) (inHg) (C) (F) (%) (C) (F)
00:05 1017 30.03 846 24.98 3.1 37.6 83 0.5 32.8
00:10 1017 30.03 846 24.98 3.1 37.6 82 0.3 32.6
00:15 1017 30.03 846 24.98 3.3 37.9 82 0.5 32.9
00:20 1017 30.03 846 24.98 3 37.4 84 0.5 32.9
00:25 1017 30.03 846 24.98 2.7 36.8 85 0.4 32.7
00:30 1017 30.03 846 24.98 2.6 36.7 86 0.5 32.8
00:35 1017 30.03 846 24.98 2.8 37 85 0.5 32.8
00:40 1017 30.03 846 24.98 3.3 37.9 83 0.7 33.2
00:45 1017 30.03 846 24.98 3.4 38.1 82 0.6 33.1
00:50 1017 30.03 846 24.98 3.4 38.2 82 0.6 33
00:55 1017 30.03 846 24.98 3.4 38.1 82 0.6 33
01:00 1017 30.03 846 24.98 3.3 38 82 0.5 33
01:05 1017 30.03 846 24.98 3.3 38 81 0.4 32.8
01:10 1017 30.03 846 24.98 3.4 38.2 81 0.4 32.7
01:15 1017 30.03 846 24.98 3.5 38.3 80 0.3 32.5
01:20 1017 30.03 846 24.98 3.4 38.2 79 0.2 32.4
01:25 1017 30.03 846 24.98 3.5 38.2 79 0.2 32.3
01:30 1017 30.03 846 24.98 3.4 38 79 0.1 32.1
01:35 1017 30.03 846 24.98 3.3 37.9 80 0.1 32.1
01:40 1017 30.03 846 24.98 3.2 37.8 80 0 32
01:45 1017 30.03 846 24.98 3.2 37.7 80 0 32
01:50 1017 30.03 846 24.98 3.2 37.7 79 -0.1 31.8
01:55 1017 30.03 846 24.98 3.2 37.8 78 -0.2 31.7
02:00 1017 30.03 846 24.98 3.2 37.8 78 -0.2 31.6
02:05 1017 30.03 846 24.98 3.2 37.8 78 -0.2 31.6
02:10 1017 30.03 846 24.98 3.1 37.5 78 -0.3 31.4
02:15 1017 30.03 846 24.98 3 37.3 79 -0.3 31.4
02:20 1017 30.03 846 24.98 2.9 37.3 79 -0.4 31.3
02:25 1017 30.03 846 24.98 2.9 37.2 79 -0.4 31.3
02:30 1017 30.03 846 24.98 2.8 37 79 -0.5 31.2
02:35 1017 30.03 846 24.98 2.8 37 79 -0.5 31.2
02:40 1017 30.03 846 24.98 2.7 36.8 79 -0.5 31.1
02:45 1017 30.03 846 24.98 2.8 37 79 -0.5 31.1
02:50 1017 30.03 846 24.98 2.8 37 79 -0.5 31.1
02:55 1017 30.03 846 24.98 2.7 36.9 79 -0.6 31
03:00 1017 30.03 846 24.98 2.7 36.9 79 -0.6 30.9
03:05 1017 30.03 846 24.98 2.8 37.1 78 -0.6 30.9
03:10 1017 30.03 846 24.98 2.9 37.1 78 -0.6 30.9
03:15 1017 30.03 846 24.98 2.8 37.1 78 -0.7 30.8
03:20 1017 30.03 846 24.98 2.7 36.8 78 -0.7 30.7
03:25 1017 30.03 846 24.98 2.6 36.7 78 -0.8 30.6
03:30 1017 30.03 846 24.98 2.7 36.8 78 -0.7 30.7
03:35 1017 30.03 846 24.98 2.7 36.8 78 -0.7 30.7
03:40 1017 30.03 846 24.98 2.6 36.6 79 -0.8 30.6
03:45 1017 30.03 846 24.98 2.4 36.4 79 -0.9 30.5
03:50 1017 30.03 846 24.98 2.4 36.4 79 -0.8 30.5
03:55 1017 30.03 846 24.98 2.6 36.6 79 -0.8 30.6
04:00 1017 30.03 846 24.98 2.8 37 78 -0.6 30.8
04:05 1017 30.03 846 24.98 2.9 37.2 77 -0.7 30.8
04:10 1017 30.03 846 24.98 2.9 37.3 77 -0.7 30.7
04:15 1017 30.03 846 24.98 2.9 37.3 77 -0.8 30.6
04:20 1017 30.03 846 24.98 3 37.4 75 -0.9 30.4
04:25 1017 30.03 846 24.98 2.9 37.2 76 -1 30.2
04:30 1017 30.03 846 24.98 2.9 37.2 74 -1.2 29.8
04:35 1017 30.03 846 24.98 3 37.4 74 -1.2 29.8
04:40 1017 30.03 846 24.98 2.8 37 75 -1.2 29.9
04:45 1017 30.03 846 24.98 2.2 36 77 -1.5 29.3
04:50 1017 30.03 846 24.98 2.2 35.9 77 -1.5 29.3
04:55 1017 30.03 846 24.98 2.2 36 76 -1.5 29.3
05:00 1017 30.03 846 24.98 2.2 35.9 76 -1.6 29.2
05:05 1017 30.03 846 24.98 2.2 35.9 75 -1.8 28.8
05:10 1017 30.03 846 24.98 2.4 36.4 74 -1.7 29
05:15 1017 30.03 846 24.98 2.6 36.7 74 -1.6 29.1
05:20 1017 30.03 846 24.98 2.7 36.9 73 -1.6 29.2
05:25 1017 30.03 846 24.98 2.7 36.8 73 -1.6 29.1
05:30 1017 30.03 846 24.98 2.6 36.7 73 -1.7 28.9
05:35 1017 30.03 846 24.98 2.5 36.6 73 -1.8 28.8
05:40 1017 30.03 846 24.98 2.5 36.5 73 -1.9 28.6
05:45 1017 30.03 846 24.98 2.4 36.4 73 -2 28.4
05:50 1017 30.03 846 24.98 2.4 36.4 73 -1.9 28.5
05:55 1017 30.03 846 24.98 2.6 36.7 73 -1.8 28.7
06:00 1017 30.03 846 24.98 2.6 36.6 73 -1.9 28.6
06:05 1017 30.03 846 24.98 2.3 36.2 74 -1.9 28.6
06:10 1017 30.03 846 24.98 2.6 36.7 73 -1.7 28.9
06:15 1017 30.03 846 24.98 2.6 36.6 74 -1.7 29
06:20 1017 30.03 846 24.98 2.5 36.5 74 -1.6 29.1
06:25 1017 30.03 846 24.98 2.6 36.7 75 -1.5 29.3
06:30 1017 30.03 846 24.98 2.7 36.9 74 -1.4 29.5
06:35 1017 30.03 846 24.98 2.7 36.9 74 -1.4 29.5
06:40 1017 30.03 846 24.98 2.7 36.9 74 -1.4 29.5
06:45 1017 30.03 846 24.98 2.7 36.9 75 -1.4 29.6
06:50 1017 30.03 846 24.98 2.7 36.9 74 -1.4 29.6
06:55 1017 30.03 846 24.98 2.7 36.9 74 -1.4 29.4
07:00 1017 30.03 846 24.98 2.6 36.7 74 -1.5 29.3
07:05 1017 30.03 846 24.98 2.3 36.1 76 -1.6 29.2
07:10 1017 30.03 846 24.98 2.1 35.7 77 -1.6 29.1
07:15 1017 30.03 846 24.98 2.1 35.7 77 -1.6 29.1
07:20 1017 30.03 846 24.98 2.3 36.2 75 -1.6 29.1
07:25 1017 30.03 846 24.98 2.5 36.5 74 -1.6 29
07:30 1017 30.03 846 24.98 2.6 36.6 74 -1.6 29.2
07:35 1017 30.03 846 24.98 2.7 36.8 74 -1.5 29.2
07:40 1017 30.03 846 24.98 2.8 37 72 -1.8 28.7
07:45 1017 30.03 846 24.98 3.2 37.7 70 -1.8 28.7
07:50 1017 30.03 846 24.98 3.3 37.9 70 -1.8 28.8
07:55 1017 30.03 846 24.98 3.3 37.9 68 -2 28.4
08:00 1017 30.03 846 24.98 3.4 38.2 68 -1.9 28.5
08:05 1017 30.03 846 24.98 3.5 38.2 68 -1.9 28.6
08:10 1017 30.03 846 24.98 3.4 38.1 68 -1.9 28.6
08:15 1017 30.03 846 24.98 3.3 38 68 -2 28.5
08:20 1017 30.03 846 24.98 3.3 38 68 -1.9 28.5
08:25 1017 30.03 846 24.98 3.3 38 68 -2 28.4
08:30 1017 30.03 846 24.98 3.2 37.8 68 -2 28.4
08:35 1017 30.03 846 24.98 3.1 37.5 69 -2.1 28.3
08:40 1017 30.03 846 24.98 2.9 37.2 70 -2 28.4
08:45 1017 30.03 846 24.98 2.7 36.9 71 -1.9 28.5
08:50 1017 30.03 846 24.98 2.7 36.9 72 -1.8 28.7
08:55 1017 30.03 846 24.98 2.7 36.9 72 -1.8 28.7
09:00 1017 30.03 846 24.98 2.8 37 71 -1.9 28.7
09:05 1017 30.03 846 24.98 3.1 37.5 70 -1.8 28.7
09:10 1017 30.03 846 24.98 3.4 38.1 70 -1.7 29
09:15 1017 30.03 846 24.98 3.6 38.6 68 -1.7 28.9
09:20 1017 30.03 846 24.98 3.8 38.9 66 -1.9 28.7
09:25 1017 30.03 846 24.98 4.1 39.3 64 -2.1 28.3
09:30 1017 30.03 846 24.98 4.4 39.8 62 -2.2 28.1
09:35 1017 30.03 846 24.98 4.6 40.2 62 -2.1 28.3
09:40 1017 30.03 846 24.98 4.7 40.4 61 -2.1 28.2
09:45 1017 30.03 846 24.98 4.7 40.4 62 -2 28.5
09:50 1017 30.03 846 24.98 4.8 40.6 60 -2.2 28
09:55 1017 30.03 846 24.98 5 40.9 59 -2.3 27.8
10:00 1017 30.03 846 24.98 5.1 41.2 60 -2 28.4
10:05 1017 30.03 846 24.98 5 41 61 -1.8 28.7
10:10 1017 30.03 846 24.98 4.8 40.7 62 -1.8 28.8
10:15 1017 30.03 846 24.98 4.7 40.5 61 -2.2 28
10:20 1017 30.03 846 24.98 4.9 40.8 59 -2.5 27.5
10:25 1017 30.03 846 24.98 5.1 41.1 59 -2.3 27.9
10:30 1017 30.03 846 24.98 4.9 40.8 60 -2.2 28
10:35 1017 30.03 846 24.98 4.6 40.2 61 -2.4 27.7
10:40 1017 30.03 846 24.98 4.4 39.8 61 -2.5 27.6
10:45 1017 30.03 846 24.98 4.4 39.8 61 -2.6 27.4
10:50 1017 30.03 846 24.98 4.3 39.7 61 -2.5 27.4
10:55 1017 30.03 846 24.98 4.4 40 61 -2.5 27.6
11:00 1017 30.03 846 24.98 4.5 40.1 61 -2.4 27.6
11:05 1017 30.03 846 24.98 4.6 40.4 60 -2.4 27.6
11:10 1017 30.03 846 24.98 4.7 40.5 60 -2.3 27.8
11:15 1017 30.03 846 24.98 4.7 40.5 60 -2.4 27.7
11:20 1017 30.03 846 24.98 4.7 40.5 60 -2.4 27.7
11:25 1017 30.03 846 24.98 4.9 40.8 59 -2.3 27.8
11:30 1017 30.03 846 24.98 4.9 40.9 59 -2.4 27.8
11:35 1017 30.03 846 24.98 5 41.1 59 -2.3 27.8
11:40 1017 30.03 846 24.98 5.1 41.2 58 -2.4 27.7
11:45 1017 30.03 846 24.98 5.1 41.1 59 -2.4 27.7
11:50 1017 30.03 846 24.98 5 41 59 -2.4 27.6
11:55 1017 30.03 846 24.98 5 41 59 -2.4 27.6
12:00 1017 30.03 846 24.98 5 41 59 -2.4 27.6
12:05 1017 30.03 846 24.98 4.9 40.9 58 -2.5 27.5
12:10 1017 30.03 846 24.98 5 40.9 59 -2.4 27.6
12:15 1017 30.03 846 24.98 5 41.1 59 -2.3 27.8
12:20 1017 30.03 846 24.98 5 40.9 59 -2.3 27.8
12:25 1017 30.03 846 24.98 4.9 40.8 59 -2.4 27.7
12:30 1017 30.03 846 24.98 4.9 40.8 59 -2.4 27.7
12:35 1017 30.03 846 24.98 5 41 59 -2.3 27.8
12:40 1017 30.03 846 24.98 5.1 41.2 59 -2.2 28
12:45 1017 30.03 846 24.98 5.2 41.4 59 -2.2 28
12:50 1017 30.03 846 24.98 5.3 41.5 58 -2.2 28
12:55 1017 30.03 846 24.98 5.3 41.6 58 -2.2 28.1
13:00 1017 30.03 846 24.98 5.4 41.7 58 -2.2 28.1
13:05 1017 30.03 846 24.98 5.4 41.8 58 -2.2 28.1
13:10 1017 30.03 846 24.98 5.4 41.7 58 -2.2 28
13:15 1017 30.03 846 24.98 5.4 41.7 58 -2.3 27.9
13:20 1017 30.03 846 24.98 5.3 41.6 58 -2.2 28
13:25 1017 30.03 846 24.98 5.5 41.9 58 -2.2 28.1
13:30 1017 30.03 846 24.98 5.6 42 57 -2.2 28.1
13:35 1017 30.03 846 24.98 5.7 42.3 57 -2.1 28.2
13:40 1017 30.03 846 24.98 5.8 42.5 57 -2.1 28.3
13:45 1017 30.03 846 24.98 5.9 42.6 57 -2.1 28.3
13:50 1017 30.03 846 24.98 5.7 42.2 57 -2.1 28.2
13:55 1017 30.03 846 24.98 5.6 42.1 58 -2 28.3
14:00 1017 30.03 846 24.98 5.8 42.4 58 -1.9 28.5
14:05 1017 30.03 846 24.98 5.9 42.6 57 -2.1 28.3
14:10 1017 30.03 846 24.98 6 42.7 56 -2.2 28
14:15 1017 30.03 846 24.98 6 42.9 56 -2.1 28.2
14:20 1017 30.03 846 24.98 6.1 43 55 -2.2 28.1
14:25 1017 30.03 846 24.98 5.9 42.7 57 -2 28.3
14:30 1017 30.03 847 25.01 5.6 42.2 58 -1.9 28.6
14:35 1017 30.03 847 25.01 5.7 42.3 58 -1.9 28.6
14:40 1017 30.03 847 25.01 5.8 42.4 59 -1.7 29
14:45 1018 30.06 847 25.01 5.8 42.4 59 -1.6 29.1
14:50 1018 30.06 847 25.01 5.8 42.5 59 -1.5 29.3
14:55 1018 30.06 847 25.01 5.8 42.4 60 -1.4 29.5
15:00 1018 30.06 847 25.01 5.5 42 64 -0.8 30.6
15:05 1018 30.06 847 25.01 5.3 41.5 65 -0.6 30.9
15:10 1018 30.06 847 25.01 5.4 41.7 68 -0.1 31.9
15:15 1018 30.06 847 25.01 5.2 41.4 70 0.3 32.5
15:20 1018 30.06 847 25.01 5 41 73 0.6 33.1
15:25 1018 30.06 847 25.01 4.9 40.8 74 0.7 33.2
15:30 1018 30.06 847 25.01 4.9 40.8 74 0.7 33.2
15:35 1018 30.06 847 25.01 4.9 40.8 74 0.7 33.2
15:40 1018 30.06 847 25.01 4.9 40.9 74 0.7 33.2
15:45 1018 30.06 847 25.01 5 41 74 0.7 33.3
15:50 1018 30.06 847 25.01 4.9 40.8 73 0.6 33
15:55 1018 30.06 847 25.01 4.8 40.7 73 0.4 32.8
16:00 1018 30.06 847 25.01 4.7 40.5 74 0.5 32.9
16:05 1018 30.06 847 25.01 4.8 40.6 73 0.5 32.8
16:10 1018 30.06 847 25.01 4.8 40.6 74 0.5 32.9
16:15 1018 30.06 847 25.01 4.7 40.5 74 0.5 32.9
16:20 1018 30.06 847 25.01 4.8 40.7 74 0.6 33.2
16:25 1018 30.06 847 25.01 4.8 40.6 74 0.6 33.1
16:30 1018 30.06 847 25.01 4.6 40.3 74 0.4 32.7
16:35 1018 30.06 847 25.01 4.4 39.9 74 0.2 32.4
16:40 1018 30.06 847 25.01 4.4 40 74 0.2 32.4
16:45 1018 30.06 847 25.01 4.4 39.9 75 0.3 32.6
16:50 1018 30.06 848 25.04 4.5 40 74 0.3 32.5
16:55 1018 30.06 848 25.04 4.8 40.7 73 0.4 32.6
17:00 1018 30.06 848 25.04 5 41 72 0.4 32.7
17:05 1018 30.06 848 25.04 4.9 40.8 72 0.2 32.4
17:10 1019 30.09 848 25.04 4.7 40.4 73 0.2 32.3
17:15 1019 30.09 848 25.04 4.6 40.2 73 0.1 32.1
17:20 1019 30.09 848 25.04 4.5 40.1 73 0.1 32.2
17:25 1019 30.09 848 25.04 4.3 39.7 74 0.1 32.2
17:30 1019 30.09 848 25.04 4 39.2 75 0.1 32.1
17:35 1019 30.09 848 25.04 3.8 38.9 77 0.1 32.2
17:40 1019 30.09 848 25.04 3.8 38.8 77 0.1 32.2
17:45 1019 30.09 848 25.04 3.9 39.1 77 0.3 32.5
17:50 1019 30.09 848 25.04 4 39.3 77 0.3 32.6
17:55 1019 30.09 848 25.04 4.1 39.3 77 0.3 32.6
18:00 1019 30.09 848 25.04 3.9 39.1 77 0.2 32.4
18:05 1019 30.09 848 25.04 3.8 38.8 77 0.2 32.3
18:10 1019 30.09 848 25.04 3.8 38.8 78 0.3 32.5
18:15 1019 30.09 848 25.04 3.9 38.9 77 0.3 32.5
18:20 1019 30.09 848 25.04 3.8 38.8 78 0.2 32.4
18:25 1019 30.09 848 25.04 3.6 38.6 78 0.2 32.3
18:30 1019 30.09 848 25.04 3.6 38.5 78 0.2 32.3
18:35 1019 30.09 848 25.04 3.5 38.3 79 0.2 32.3
18:40 1019 30.09 848 25.04 3.3 38 80 0.3 32.5
18:45 1019 30.09 848 25.04 3.3 37.9 81 0.3 32.5
18:50 1019 30.09 848 25.04 3.3 37.9 81 0.3 32.6
18:55 1019 30.09 848 25.04 3 37.4 82 0.2 32.4
19:00 1019 30.09 849 25.07 3.1 37.6 82 0.3 32.6
19:05 1019 30.09 849 25.07 3.2 37.8 82 0.3 32.6
19:10 1019 30.09 849 25.07 3.2 37.8 81 0.4 32.6
19:15 1019 30.09 849 25.07 3.2 37.8 81 0.3 32.6
19:20 1019 30.09 849 25.07 3.1 37.5 82 0.3 32.5
19:25 1019 30.09 849 25.07 2.7 36.9 83 0.1 32.2
19:30 1019 30.09 849 25.07 2.6 36.6 84 0 32.1
19:35 1020 30.12 849 25.07 2.8 37.1 83 0.3 32.5
19:40 1020 30.12 849 25.07 3.1 37.5 83 0.4 32.7
19:45 1020 30.12 849 25.07 3.2 37.7 82 0.4 32.8
19:50 1020 30.12 849 25.07 2.9 37.3 83 0.3 32.5
19:55 1020 30.12 849 25.07 2.9 37.2 83 0.3 32.5
20:00 1020 30.12 849 25.07 3.1 37.5 83 0.4 32.7
20:05 1020 30.12 849 25.07 3.1 37.5 83 0.4 32.7
20:10 1020 30.12 849 25.07 2.9 37.2 83 0.3 32.5
20:15 1020 30.12 849 25.07 2.8 37 84 0.3 32.5
20:20 1020 30.12 849 25.07 2.6 36.6 84 0.2 32.3
20:25 1020 30.12 849 25.07 2.5 36.4 84 0.1 32.2
20:30 1020 30.12 849 25.07 2.5 36.5 84 0.1 32.3
20:35 1020 30.12 849 25.07 2.7 36.8 84 0.2 32.4
20:40 1020 30.12 849 25.07 2.5 36.5 85 0.2 32.3
20:45 1020 30.12 849 25.07 2.6 36.7 84 0.2 32.4
20:50 1020 30.12 849 25.07 2.7 36.8 84 0.3 32.5
20:55 1020 30.12 849 25.07 2.7 36.9 84 0.3 32.5
21:00 1020 30.12 849 25.07 2.8 37.1 83 0.2 32.4
21:05 1020 30.12 850 25.1 2.9 37.2 83 0.2 32.4
21:10 1020 30.12 850 25.1 2.8 37 83 0.2 32.3
21:15 1021 30.15 850 25.1 2.7 36.9 83 0.1 32.1
21:20 1021 30.15 850 25.1 2.8 37.1 82 0.1 32.1
21:25 1021 30.15 850 25.1 2.8 37 82 0 32
21:30 1021 30.15 850 25.1 2.7 36.9 82 -0 31.9
21:35 1021 30.15 850 25.1 2.7 36.9 82 -0.1 31.8
21:40 1021 30.15 850 25.1 2.8 37.1 81 -0.1 31.8
21:45 1021 30.15 850 25.1 2.9 37.2 80 -0.2 31.6
21:50 1021 30.15 850 25.1 2.8 37.1 80 -0.3 31.5
21:55 1021 30.15 850 25.1 2.8 37.1 80 -0.3 31.5
22:00 1021 30.15 850 25.1 2.8 37.1 80 -0.3 31.4
22:05 1021 30.15 850 25.1 2.7 36.9 80 -0.4 31.2
22:10 1021 30.15 850 25.1 2.5 36.6 80 -0.6 30.9
22:15 1021 30.15 850 25.1 2.5 36.5 80 -0.7 30.8
22:20 1021 30.15 850 25.1 2.3 36.2 80 -0.8 30.6
22:25 1021 30.15 850 25.1 2.1 35.8 80 -0.9 30.3
22:30 1021 30.15 850 25.1 1.9 35.4 81 -1 30.1
22:35 1021 30.15 850 25.1 1.7 35.1 81 -1.2 29.9
22:40 1021 30.15 850 25.1 1.9 35.5 80 -1.2 29.9
22:45 1021 30.15 850 25.1 2.2 36 78 -1.2 29.9
22:50 1021 30.15 850 25.1 2.5 36.5 77 -1.2 29.9
22:55 1021 30.15 850 25.1 2.1 35.8 78 -1.4 29.5
23:00 1021 30.15 850 25.1 1.5 34.7 79 -1.7 29
23:05 1021 30.15 850 25.1 1.3 34.3 82 -1.5 29.3
23:10 1021 30.15 850 25.1 1.6 34.8 80 -1.5 29.3
23:15 1021 30.15 850 25.1 1.6 34.9 80 -1.5 29.2
23:20 1021 30.15 850 25.1 1.8 35.3 79 -1.5 29.2
23:25 1021 30.15 850 25.1 1.6 34.9 79 -1.7 28.9
23:30 1021 30.15 850 25.1 1.4 34.5 79 -1.8 28.7
23:35 1021 30.15 850 25.1 1.7 35.1 77 -1.9 28.6
23:40 1021 30.15 850 25.1 2.1 35.7 75 -1.9 28.6
23:45 1021 30.15 850 25.1 1.7 35.1 77 -1.9 28.6
23:50 1021 30.15 850 25.1 1.5 34.6 78 -2 28.3
23:55 1021 30.15 850 25.1 1 33.8 79 -2.2 28
24:00 1021 30.15 850 25.1 0.5 33 81 -2.3 27.9